sensor_id;sensor_type;location;lat;lon;timestamp;P1;durP1;ratioP1;P2;durP2;ratioP2
72813;SDS011;60945;48.516;-2.768;2023-03-08T00:00:00;7.60;;;7.00;;
72813;SDS011;60945;48.516;-2.768;2023-03-08T00:02:26;7.10;;;6.70;;
72813;SDS011;60945;48.516;-2.768;2023-03-08T00:04:54;6.90;;;6.50;;
72813;SDS011;60945;48.516;-2.768;2023-03-08T00:07:21;6.25;;;5.85;;
72813;SDS011;60945;48.516;-2.768;2023-03-08T00:09:47;6.60;;;6.20;;
72813;SDS011;60945;48.516;-2.768;2023-03-08T00:12:12;6.57;;;6.18;;
72813;SDS011;60945;48.516;-2.768;2023-03-08T00:14:38;6.70;;;6.30;;
72813;SDS011;60945;48.516;-2.768;2023-03-08T00:17:04;6.70;;;6.20;;
72813;SDS011;60945;48.516;-2.768;2023-03-08T00:19:30;6.10;;;5.70;;
72813;SDS011;60945;48.516;-2.768;2023-03-08T00:21:56;6.22;;;5.93;;
72813;SDS011;60945;48.516;-2.768;2023-03-08T00:24:22;6.18;;;5.88;;
72813;SDS011;60945;48.516;-2.768;2023-03-08T00:26:47;6.13;;;5.82;;
72813;SDS011;60945;48.516;-2.768;2023-03-08T00:29:13;6.18;;;5.88;;
72813;SDS011;60945;48.516;-2.768;2023-03-08T00:31:39;6.53;;;6.03;;
72813;SDS011;60945;48.516;-2.768;2023-03-08T00:34:04;6.00;;;5.70;;
72813;SDS011;60945;48.516;-2.768;2023-03-08T00:36:30;5.97;;;5.50;;
72813;SDS011;60945;48.516;-2.768;2023-03-08T00:38:56;6.10;;;5.70;;
72813;SDS011;60945;48.516;-2.768;2023-03-08T00:41:21;7.18;;;6.78;;
72813;SDS011;60945;48.516;-2.768;2023-03-08T00:43:48;5.85;;;5.55;;
72813;SDS011;60945;48.516;-2.768;2023-03-08T00:46:14;6.10;;;5.70;;
72813;SDS011;60945;48.516;-2.768;2023-03-08T00:48:40;5.72;;;5.43;;
72813;SDS011;60945;48.516;-2.768;2023-03-08T00:51:06;5.50;;;5.20;;
72813;SDS011;60945;48.516;-2.768;2023-03-08T00:53:32;5.50;;;5.20;;
72813;SDS011;60945;48.516;-2.768;2023-03-08T00:55:58;6.05;;;5.65;;
72813;SDS011;60945;48.516;-2.768;2023-03-08T00:58:25;5.30;;;5.00;;
72813;SDS011;60945;48.516;-2.768;2023-03-08T01:00:52;5.30;;;5.00;;
72813;SDS011;60945;48.516;-2.768;2023-03-08T01:03:18;5.30;;;5.00;;
72813;SDS011;60945;48.516;-2.768;2023-03-08T01:05:46;5.40;;;5.07;;
72813;SDS011;60945;48.516;-2.768;2023-03-08T01:08:14;5.20;;;4.90;;
72813;SDS011;60945;48.516;-2.768;2023-03-08T01:10:45;5.30;;;5.00;;
72813;SDS011;60945;48.516;-2.768;2023-03-08T01:13:12;5.20;;;4.90;;
72813;SDS011;60945;48.516;-2.768;2023-03-08T01:15:38;5.70;;;5.30;;
72813;SDS011;60945;48.516;-2.768;2023-03-08T01:18:04;5.60;;;5.30;;
72813;SDS011;60945;48.516;-2.768;2023-03-08T01:20:30;6.10;;;5.80;;
72813;SDS011;60945;48.516;-2.768;2023-03-08T01:22:56;5.88;;;5.57;;
72813;SDS011;60945;48.516;-2.768;2023-03-08T01:25:22;5.53;;;5.20;;
72813;SDS011;60945;48.516;-2.768;2023-03-08T01:27:48;5.85;;;5.55;;
72813;SDS011;60945;48.516;-2.768;2023-03-08T01:30:13;5.90;;;5.60;;
72813;SDS011;60945;48.516;-2.768;2023-03-08T01:32:39;5.60;;;5.30;;
72813;SDS011;60945;48.516;-2.768;2023-03-08T01:35:05;5.70;;;5.40;;
72813;SDS011;60945;48.516;-2.768;2023-03-08T01:37:31;5.55;;;5.25;;
72813;SDS011;60945;48.516;-2.768;2023-03-08T01:39:57;5.47;;;5.18;;
72813;SDS011;60945;48.516;-2.768;2023-03-08T01:42:24;5.10;;;4.80;;
72813;SDS011;60945;48.516;-2.768;2023-03-08T01:44:51;6.00;;;5.70;;
72813;SDS011;60945;48.516;-2.768;2023-03-08T01:47:22;6.03;;;5.72;;
72813;SDS011;60945;48.516;-2.768;2023-03-08T01:49:51;5.88;;;5.57;;
72813;SDS011;60945;48.516;-2.768;2023-03-08T01:52:24;5.50;;;5.20;;
72813;SDS011;60945;48.516;-2.768;2023-03-08T01:54:55;5.95;;;5.55;;
72813;SDS011;60945;48.516;-2.768;2023-03-08T01:57:29;5.90;;;5.60;;
72813;SDS011;60945;48.516;-2.768;2023-03-08T01:59:58;6.30;;;5.80;;
72813;SDS011;60945;48.516;-2.768;2023-03-08T02:02:40;6.10;;;5.80;;
72813;SDS011;60945;48.516;-2.768;2023-03-08T02:05:21;5.80;;;5.50;;
72813;SDS011;60945;48.516;-2.768;2023-03-08T02:07:48;5.65;;;5.35;;
72813;SDS011;60945;48.516;-2.768;2023-03-08T02:10:13;6.07;;;5.47;;
72813;SDS011;60945;48.516;-2.768;2023-03-08T02:12:41;6.40;;;5.80;;
72813;SDS011;60945;48.516;-2.768;2023-03-08T02:15:13;11.77;;;6.10;;
72813;SDS011;60945;48.516;-2.768;2023-03-08T02:17:42;6.43;;;5.40;;
72813;SDS011;60945;48.516;-2.768;2023-03-08T02:22:47;7.28;;;5.40;;
72813;SDS011;60945;48.516;-2.768;2023-03-08T02:30:21;9.20;;;6.50;;
72813;SDS011;60945;48.516;-2.768;2023-03-08T02:35:15;10.55;;;6.70;;
72813;SDS011;60945;48.516;-2.768;2023-03-08T02:37:41;7.45;;;6.68;;
72813;SDS011;60945;48.516;-2.768;2023-03-08T02:40:07;11.38;;;7.38;;
72813;SDS011;60945;48.516;-2.768;2023-03-08T02:42:33;11.13;;;7.90;;
72813;SDS011;60945;48.516;-2.768;2023-03-08T02:44:59;10.98;;;7.07;;
72813;SDS011;60945;48.516;-2.768;2023-03-08T02:47:24;11.98;;;7.40;;
72813;SDS011;60945;48.516;-2.768;2023-03-08T02:49:50;13.48;;;7.50;;
72813;SDS011;60945;48.516;-2.768;2023-03-08T02:52:16;12.52;;;7.72;;
72813;SDS011;60945;48.516;-2.768;2023-03-08T02:54:41;16.50;;;8.23;;
72813;SDS011;60945;48.516;-2.768;2023-03-08T02:57:07;16.52;;;7.93;;
72813;SDS011;60945;48.516;-2.768;2023-03-08T02:59:33;12.38;;;7.40;;
72813;SDS011;60945;48.516;-2.768;2023-03-08T03:01:58;12.43;;;7.95;;
72813;SDS011;60945;48.516;-2.768;2023-03-08T03:04:24;12.93;;;7.35;;
72813;SDS011;60945;48.516;-2.768;2023-03-08T03:06:57;17.08;;;8.45;;
72813;SDS011;60945;48.516;-2.768;2023-03-08T03:09:23;14.43;;;7.95;;
72813;SDS011;60945;48.516;-2.768;2023-03-08T03:11:49;9.70;;;6.85;;
72813;SDS011;60945;48.516;-2.768;2023-03-08T03:14:15;14.02;;;8.23;;
72813;SDS011;60945;48.516;-2.768;2023-03-08T03:16:41;14.52;;;7.57;;
72813;SDS011;60945;48.516;-2.768;2023-03-08T03:19:06;14.63;;;7.65;;
72813;SDS011;60945;48.516;-2.768;2023-03-08T03:21:32;16.15;;;8.70;;
72813;SDS011;60945;48.516;-2.768;2023-03-08T03:23:58;16.67;;;7.88;;
72813;SDS011;60945;48.516;-2.768;2023-03-08T03:26:24;12.13;;;7.72;;
72813;SDS011;60945;48.516;-2.768;2023-03-08T03:28:50;10.68;;;7.60;;
72813;SDS011;60945;48.516;-2.768;2023-03-08T03:31:20;18.10;;;7.93;;
72813;SDS011;60945;48.516;-2.768;2023-03-08T03:33:46;19.00;;;8.30;;
72813;SDS011;60945;48.516;-2.768;2023-03-08T03:36:14;16.77;;;8.18;;
72813;SDS011;60945;48.516;-2.768;2023-03-08T03:38:41;18.92;;;12.63;;
72813;SDS011;60945;48.516;-2.768;2023-03-08T03:41:09;15.30;;;8.05;;
72813;SDS011;60945;48.516;-2.768;2023-03-08T03:43:38;13.70;;;8.55;;
72813;SDS011;60945;48.516;-2.768;2023-03-08T03:46:08;15.35;;;8.60;;
72813;SDS011;60945;48.516;-2.768;2023-03-08T03:48:36;15.18;;;7.55;;
72813;SDS011;60945;48.516;-2.768;2023-03-08T03:51:04;10.82;;;7.65;;
72813;SDS011;60945;48.516;-2.768;2023-03-08T03:53:32;16.00;;;7.70;;
72813;SDS011;60945;48.516;-2.768;2023-03-08T03:56:02;12.18;;;7.45;;
72813;SDS011;60945;48.516;-2.768;2023-03-08T03:58:34;15.25;;;7.03;;
72813;SDS011;60945;48.516;-2.768;2023-03-08T04:00:59;14.48;;;8.32;;
72813;SDS011;60945;48.516;-2.768;2023-03-08T04:03:25;14.50;;;8.27;;
72813;SDS011;60945;48.516;-2.768;2023-03-08T04:05:51;11.77;;;8.13;;
72813;SDS011;60945;48.516;-2.768;2023-03-08T04:08:19;12.40;;;7.65;;
72813;SDS011;60945;48.516;-2.768;2023-03-08T04:10:45;10.68;;;7.72;;
72813;SDS011;60945;48.516;-2.768;2023-03-08T04:13:10;16.05;;;8.35;;
72813;SDS011;60945;48.516;-2.768;2023-03-08T04:15:36;15.10;;;8.27;;
72813;SDS011;60945;48.516;-2.768;2023-03-08T04:18:02;12.77;;;7.70;;
72813;SDS011;60945;48.516;-2.768;2023-03-08T04:20:27;12.48;;;8.02;;
72813;SDS011;60945;48.516;-2.768;2023-03-08T04:22:53;11.05;;;7.95;;
72813;SDS011;60945;48.516;-2.768;2023-03-08T04:25:19;13.85;;;7.90;;
72813;SDS011;60945;48.516;-2.768;2023-03-08T04:27:44;12.38;;;8.00;;
72813;SDS011;60945;48.516;-2.768;2023-03-08T04:30:10;11.82;;;7.78;;
72813;SDS011;60945;48.516;-2.768;2023-03-08T04:32:37;10.60;;;7.60;;
72813;SDS011;60945;48.516;-2.768;2023-03-08T04:35:05;12.02;;;9.15;;
72813;SDS011;60945;48.516;-2.768;2023-03-08T04:37:31;9.73;;;7.95;;
72813;SDS011;60945;48.516;-2.768;2023-03-08T04:39:56;11.38;;;7.63;;
72813;SDS011;60945;48.516;-2.768;2023-03-08T04:42:22;8.93;;;7.80;;
72813;SDS011;60945;48.516;-2.768;2023-03-08T04:44:48;11.60;;;8.05;;
72813;SDS011;60945;48.516;-2.768;2023-03-08T04:47:13;8.60;;;7.82;;
72813;SDS011;60945;48.516;-2.768;2023-03-08T04:49:39;9.27;;;8.02;;
72813;SDS011;60945;48.516;-2.768;2023-03-08T04:52:04;9.85;;;8.60;;
72813;SDS011;60945;48.516;-2.768;2023-03-08T04:54:30;8.25;;;7.47;;
72813;SDS011;60945;48.516;-2.768;2023-03-08T04:56:56;7.97;;;7.18;;
72813;SDS011;60945;48.516;-2.768;2023-03-08T04:59:24;8.63;;;7.78;;
72813;SDS011;60945;48.516;-2.768;2023-03-08T05:01:49;8.38;;;7.57;;
72813;SDS011;60945;48.516;-2.768;2023-03-08T05:04:15;8.32;;;7.53;;
72813;SDS011;60945;48.516;-2.768;2023-03-08T05:06:40;8.02;;;7.38;;
72813;SDS011;60945;48.516;-2.768;2023-03-08T05:09:06;7.90;;;7.20;;
72813;SDS011;60945;48.516;-2.768;2023-03-08T05:11:32;8.77;;;7.47;;
72813;SDS011;60945;48.516;-2.768;2023-03-08T05:13:58;10.48;;;7.82;;
72813;SDS011;60945;48.516;-2.768;2023-03-08T05:16:24;10.32;;;7.85;;
72813;SDS011;60945;48.516;-2.768;2023-03-08T05:18:50;7.40;;;6.88;;
72813;SDS011;60945;48.516;-2.768;2023-03-08T05:21:16;11.48;;;7.53;;
72813;SDS011;60945;48.516;-2.768;2023-03-08T05:23:44;15.00;;;8.98;;
72813;SDS011;60945;48.516;-2.768;2023-03-08T05:26:12;12.05;;;7.30;;
72813;SDS011;60945;48.516;-2.768;2023-03-08T05:28:39;9.93;;;7.10;;
72813;SDS011;60945;48.516;-2.768;2023-03-08T05:31:12;8.38;;;7.63;;
72813;SDS011;60945;48.516;-2.768;2023-03-08T05:33:43;10.27;;;7.90;;
72813;SDS011;60945;48.516;-2.768;2023-03-08T05:36:10;11.10;;;10.10;;
72813;SDS011;60945;48.516;-2.768;2023-03-08T05:38:37;8.77;;;7.93;;
72813;SDS011;60945;48.516;-2.768;2023-03-08T05:41:03;7.95;;;7.18;;
72813;SDS011;60945;48.516;-2.768;2023-03-08T05:43:31;10.55;;;9.55;;
72813;SDS011;60945;48.516;-2.768;2023-03-08T05:45:58;12.93;;;8.93;;
72813;SDS011;60945;48.516;-2.768;2023-03-08T05:48:26;9.43;;;8.50;;
72813;SDS011;60945;48.516;-2.768;2023-03-08T05:50:53;11.18;;;8.77;;
72813;SDS011;60945;48.516;-2.768;2023-03-08T05:53:19;10.15;;;8.15;;
72813;SDS011;60945;48.516;-2.768;2023-03-08T05:55:45;11.05;;;8.77;;
72813;SDS011;60945;48.516;-2.768;2023-03-08T05:58:11;9.32;;;8.25;;
72813;SDS011;60945;48.516;-2.768;2023-03-08T06:00:37;12.13;;;8.90;;
72813;SDS011;60945;48.516;-2.768;2023-03-08T06:03:03;12.15;;;8.55;;
72813;SDS011;60945;48.516;-2.768;2023-03-08T06:05:29;14.23;;;7.97;;
72813;SDS011;60945;48.516;-2.768;2023-03-08T06:07:55;10.98;;;8.23;;
72813;SDS011;60945;48.516;-2.768;2023-03-08T06:10:21;9.15;;;8.20;;
72813;SDS011;60945;48.516;-2.768;2023-03-08T06:12:47;10.43;;;7.82;;
72813;SDS011;60945;48.516;-2.768;2023-03-08T06:15:13;14.20;;;8.27;;
72813;SDS011;60945;48.516;-2.768;2023-03-08T06:17:39;11.68;;;8.20;;
72813;SDS011;60945;48.516;-2.768;2023-03-08T06:20:06;10.85;;;8.20;;
72813;SDS011;60945;48.516;-2.768;2023-03-08T06:22:32;15.13;;;8.93;;
72813;SDS011;60945;48.516;-2.768;2023-03-08T06:24:58;11.10;;;8.85;;
72813;SDS011;60945;48.516;-2.768;2023-03-08T06:27:24;12.57;;;8.95;;
72813;SDS011;60945;48.516;-2.768;2023-03-08T06:29:50;16.08;;;14.02;;
72813;SDS011;60945;48.516;-2.768;2023-03-08T06:32:16;16.55;;;8.82;;
72813;SDS011;60945;48.516;-2.768;2023-03-08T06:34:42;10.15;;;9.00;;
72813;SDS011;60945;48.516;-2.768;2023-03-08T06:37:08;14.35;;;9.18;;
72813;SDS011;60945;48.516;-2.768;2023-03-08T06:39:33;13.85;;;9.35;;
72813;SDS011;60945;48.516;-2.768;2023-03-08T06:41:59;18.10;;;10.15;;
72813;SDS011;60945;48.516;-2.768;2023-03-08T06:44:28;15.50;;;8.38;;
72813;SDS011;60945;48.516;-2.768;2023-03-08T06:46:54;13.35;;;9.35;;
72813;SDS011;60945;48.516;-2.768;2023-03-08T06:49:20;19.52;;;17.63;;
72813;SDS011;60945;48.516;-2.768;2023-03-08T06:51:46;13.57;;;8.30;;
72813;SDS011;60945;48.516;-2.768;2023-03-08T06:54:12;12.55;;;11.40;;
72813;SDS011;60945;48.516;-2.768;2023-03-08T06:56:42;17.35;;;7.95;;
72813;SDS011;60945;48.516;-2.768;2023-03-08T06:59:11;17.65;;;8.60;;
72813;SDS011;60945;48.516;-2.768;2023-03-08T07:01:38;16.65;;;10.32;;
72813;SDS011;60945;48.516;-2.768;2023-03-08T07:04:04;16.58;;;9.23;;
72813;SDS011;60945;48.516;-2.768;2023-03-08T07:06:30;16.85;;;13.80;;
72813;SDS011;60945;48.516;-2.768;2023-03-08T07:08:56;18.42;;;8.70;;
72813;SDS011;60945;48.516;-2.768;2023-03-08T07:11:21;20.98;;;18.88;;
72813;SDS011;60945;48.516;-2.768;2023-03-08T07:13:47;17.73;;;12.57;;
72813;SDS011;60945;48.516;-2.768;2023-03-08T07:16:16;13.35;;;8.65;;
72813;SDS011;60945;48.516;-2.768;2023-03-08T07:18:41;16.95;;;10.00;;
72813;SDS011;60945;48.516;-2.768;2023-03-08T07:21:07;17.80;;;15.95;;
72813;SDS011;60945;48.516;-2.768;2023-03-08T07:23:34;18.88;;;8.85;;
72813;SDS011;60945;48.516;-2.768;2023-03-08T07:26:02;14.43;;;8.15;;
72813;SDS011;60945;48.516;-2.768;2023-03-08T07:28:29;16.42;;;11.98;;
72813;SDS011;60945;48.516;-2.768;2023-03-08T07:30:55;13.02;;;8.70;;
72813;SDS011;60945;48.516;-2.768;2023-03-08T07:33:21;28.85;;;26.67;;
72813;SDS011;60945;48.516;-2.768;2023-03-08T07:35:47;14.27;;;8.77;;
72813;SDS011;60945;48.516;-2.768;2023-03-08T07:38:13;16.63;;;9.30;;
72813;SDS011;60945;48.516;-2.768;2023-03-08T07:40:39;17.30;;;9.02;;
72813;SDS011;60945;48.516;-2.768;2023-03-08T07:43:05;16.42;;;9.40;;
72813;SDS011;60945;48.516;-2.768;2023-03-08T07:45:31;19.70;;;8.65;;
72813;SDS011;60945;48.516;-2.768;2023-03-08T07:48:00;16.88;;;8.25;;
72813;SDS011;60945;48.516;-2.768;2023-03-08T07:50:28;13.90;;;8.68;;
72813;SDS011;60945;48.516;-2.768;2023-03-08T07:52:54;15.52;;;9.43;;
72813;SDS011;60945;48.516;-2.768;2023-03-08T07:55:20;21.00;;;14.68;;
72813;SDS011;60945;48.516;-2.768;2023-03-08T07:57:46;17.70;;;8.18;;
72813;SDS011;60945;48.516;-2.768;2023-03-08T08:00:11;13.48;;;7.55;;
72813;SDS011;60945;48.516;-2.768;2023-03-08T08:02:37;19.98;;;8.05;;
72813;SDS011;60945;48.516;-2.768;2023-03-08T08:05:03;16.50;;;13.02;;
72813;SDS011;60945;48.516;-2.768;2023-03-08T08:07:29;17.17;;;8.48;;
72813;SDS011;60945;48.516;-2.768;2023-03-08T08:09:55;20.02;;;9.00;;
72813;SDS011;60945;48.516;-2.768;2023-03-08T08:12:21;15.68;;;9.88;;
72813;SDS011;60945;48.516;-2.768;2023-03-08T08:14:51;15.02;;;10.82;;
72813;SDS011;60945;48.516;-2.768;2023-03-08T08:17:18;22.02;;;8.07;;
72813;SDS011;60945;48.516;-2.768;2023-03-08T08:19:44;16.80;;;7.55;;
72813;SDS011;60945;48.516;-2.768;2023-03-08T08:22:10;16.85;;;8.15;;
72813;SDS011;60945;48.516;-2.768;2023-03-08T08:24:35;16.80;;;12.10;;
72813;SDS011;60945;48.516;-2.768;2023-03-08T08:27:01;14.93;;;7.90;;
72813;SDS011;60945;48.516;-2.768;2023-03-08T08:29:30;15.40;;;8.38;;
72813;SDS011;60945;48.516;-2.768;2023-03-08T08:31:56;19.45;;;8.55;;
72813;SDS011;60945;48.516;-2.768;2023-03-08T08:34:22;15.95;;;8.23;;
72813;SDS011;60945;48.516;-2.768;2023-03-08T08:36:51;14.43;;;8.32;;
72813;SDS011;60945;48.516;-2.768;2023-03-08T08:39:16;17.52;;;8.07;;
72813;SDS011;60945;48.516;-2.768;2023-03-08T08:41:42;19.27;;;9.00;;
72813;SDS011;60945;48.516;-2.768;2023-03-08T08:44:08;15.45;;;7.72;;
72813;SDS011;60945;48.516;-2.768;2023-03-08T08:46:33;18.80;;;8.15;;
72813;SDS011;60945;48.516;-2.768;2023-03-08T08:48:59;16.75;;;7.60;;
72813;SDS011;60945;48.516;-2.768;2023-03-08T08:51:26;13.50;;;7.00;;
72813;SDS011;60945;48.516;-2.768;2023-03-08T08:53:52;17.90;;;7.60;;
72813;SDS011;60945;48.516;-2.768;2023-03-08T08:56:23;17.48;;;7.68;;
72813;SDS011;60945;48.516;-2.768;2023-03-08T08:58:50;17.00;;;7.28;;
72813;SDS011;60945;48.516;-2.768;2023-03-08T09:01:17;13.98;;;11.77;;
72813;SDS011;60945;48.516;-2.768;2023-03-08T09:03:44;16.83;;;7.32;;
72813;SDS011;60945;48.516;-2.768;2023-03-08T09:06:11;17.38;;;7.03;;
72813;SDS011;60945;48.516;-2.768;2023-03-08T09:08:37;15.45;;;7.85;;
72813;SDS011;60945;48.516;-2.768;2023-03-08T09:11:04;18.92;;;7.85;;
72813;SDS011;60945;48.516;-2.768;2023-03-08T09:13:31;14.13;;;7.28;;
72813;SDS011;60945;48.516;-2.768;2023-03-08T09:15:57;18.75;;;7.95;;
72813;SDS011;60945;48.516;-2.768;2023-03-08T09:18:23;19.10;;;8.63;;
72813;SDS011;60945;48.516;-2.768;2023-03-08T09:20:49;15.50;;;7.28;;
72813;SDS011;60945;48.516;-2.768;2023-03-08T09:23:15;13.43;;;8.18;;
72813;SDS011;60945;48.516;-2.768;2023-03-08T09:25:41;17.40;;;7.88;;
72813;SDS011;60945;48.516;-2.768;2023-03-08T09:28:07;17.90;;;8.43;;
72813;SDS011;60945;48.516;-2.768;2023-03-08T09:30:33;14.65;;;7.43;;
72813;SDS011;60945;48.516;-2.768;2023-03-08T09:32:59;14.82;;;11.63;;
72813;SDS011;60945;48.516;-2.768;2023-03-08T09:35:28;15.55;;;8.07;;
72813;SDS011;60945;48.516;-2.768;2023-03-08T09:37:57;14.25;;;6.63;;
72813;SDS011;60945;48.516;-2.768;2023-03-08T09:40:24;12.57;;;6.85;;
72813;SDS011;60945;48.516;-2.768;2023-03-08T09:42:51;17.77;;;7.28;;
72813;SDS011;60945;48.516;-2.768;2023-03-08T09:45:22;14.57;;;6.78;;
72813;SDS011;60945;48.516;-2.768;2023-03-08T09:55:42;12.63;;;9.52;;
72813;SDS011;60945;48.516;-2.768;2023-03-08T09:58:31;11.77;;;6.30;;
72813;SDS011;60945;48.516;-2.768;2023-03-08T10:12:27;14.65;;;6.28;;
72813;SDS011;60945;48.516;-2.768;2023-03-08T10:15:15;12.65;;;6.60;;
72813;SDS011;60945;48.516;-2.768;2023-03-08T10:20:34;9.75;;;5.57;;
72813;SDS011;60945;48.516;-2.768;2023-03-08T10:25:40;12.18;;;5.15;;
72813;SDS011;60945;48.516;-2.768;2023-03-08T10:28:16;16.10;;;14.07;;
72813;SDS011;60945;48.516;-2.768;2023-03-08T10:30:48;11.85;;;5.90;;
72813;SDS011;60945;48.516;-2.768;2023-03-08T10:33:28;8.80;;;5.93;;
72813;SDS011;60945;48.516;-2.768;2023-03-08T10:35:58;11.82;;;6.18;;
72813;SDS011;60945;48.516;-2.768;2023-03-08T10:38:27;14.63;;;5.32;;
72813;SDS011;60945;48.516;-2.768;2023-03-08T10:41:14;12.40;;;5.80;;
72813;SDS011;60945;48.516;-2.768;2023-03-08T10:43:45;11.18;;;5.22;;
72813;SDS011;60945;48.516;-2.768;2023-03-08T10:46:14;11.30;;;9.63;;
72813;SDS011;60945;48.516;-2.768;2023-03-08T10:48:42;10.80;;;8.35;;
72813;SDS011;60945;48.516;-2.768;2023-03-08T10:51:22;16.80;;;11.43;;
72813;SDS011;60945;48.516;-2.768;2023-03-08T10:54:02;8.75;;;6.55;;
72813;SDS011;60945;48.516;-2.768;2023-03-08T10:59:01;15.45;;;9.32;;
72813;SDS011;60945;48.516;-2.768;2023-03-08T11:01:31;14.13;;;12.95;;
72813;SDS011;60945;48.516;-2.768;2023-03-08T11:03:59;7.65;;;6.53;;
72813;SDS011;60945;48.516;-2.768;2023-03-08T11:06:44;14.07;;;12.70;;
72813;SDS011;60945;48.516;-2.768;2023-03-08T11:09:43;10.70;;;5.50;;
72813;SDS011;60945;48.516;-2.768;2023-03-08T11:12:02;14.50;;;6.38;;
72813;SDS011;60945;48.516;-2.768;2023-03-08T11:14:28;10.80;;;5.38;;
72813;SDS011;60945;48.516;-2.768;2023-03-08T11:16:57;16.27;;;14.77;;
72813;SDS011;60945;48.516;-2.768;2023-03-08T11:25:12;8.68;;;5.35;;
72813;SDS011;60945;48.516;-2.768;2023-03-08T11:30:51;8.63;;;4.82;;
72813;SDS011;60945;48.516;-2.768;2023-03-08T11:38:58;7.68;;;6.47;;
72813;SDS011;60945;48.516;-2.768;2023-03-08T11:44:21;8.70;;;5.05;;
72813;SDS011;60945;48.516;-2.768;2023-03-08T11:50:04;8.52;;;5.47;;
72813;SDS011;60945;48.516;-2.768;2023-03-08T11:52:46;8.65;;;5.38;;
72813;SDS011;60945;48.516;-2.768;2023-03-08T11:58:14;12.88;;;11.90;;
72813;SDS011;60945;48.516;-2.768;2023-03-08T12:00:58;12.38;;;10.32;;
72813;SDS011;60945;48.516;-2.768;2023-03-08T12:03:28;8.52;;;7.65;;
72813;SDS011;60945;48.516;-2.768;2023-03-08T12:08:35;11.07;;;9.30;;
72813;SDS011;60945;48.516;-2.768;2023-03-08T12:11:45;10.65;;;9.68;;
72813;SDS011;60945;48.516;-2.768;2023-03-08T12:13:52;17.52;;;16.15;;
72813;SDS011;60945;48.516;-2.768;2023-03-08T12:27:11;15.73;;;14.63;;
72813;SDS011;60945;48.516;-2.768;2023-03-08T12:32:27;11.40;;;10.50;;
72813;SDS011;60945;48.516;-2.768;2023-03-08T12:35:05;12.25;;;11.10;;
72813;SDS011;60945;48.516;-2.768;2023-03-08T12:37:56;16.63;;;15.65;;
72813;SDS011;60945;48.516;-2.768;2023-03-08T12:40:34;11.63;;;10.73;;
72813;SDS011;60945;48.516;-2.768;2023-03-08T12:43:04;14.32;;;13.43;;
72813;SDS011;60945;48.516;-2.768;2023-03-08T12:45:39;18.73;;;17.67;;
72813;SDS011;60945;48.516;-2.768;2023-03-08T12:50:54;10.45;;;9.80;;
72813;SDS011;60945;48.516;-2.768;2023-03-08T12:53:25;9.57;;;8.90;;
72813;SDS011;60945;48.516;-2.768;2023-03-08T12:58:35;14.85;;;14.05;;
72813;SDS011;60945;48.516;-2.768;2023-03-08T13:01:04;14.35;;;13.73;;
72813;SDS011;60945;48.516;-2.768;2023-03-08T13:03:47;9.60;;;9.02;;
72813;SDS011;60945;48.516;-2.768;2023-03-08T13:11:46;10.07;;;9.30;;
72813;SDS011;60945;48.516;-2.768;2023-03-08T13:15:22;9.75;;;8.68;;
72813;SDS011;60945;48.516;-2.768;2023-03-08T13:17:50;10.38;;;9.23;;
72813;SDS011;60945;48.516;-2.768;2023-03-08T13:23:05;15.02;;;13.48;;
72813;SDS011;60945;48.516;-2.768;2023-03-08T13:25:53;9.93;;;8.93;;
72813;SDS011;60945;48.516;-2.768;2023-03-08T13:28:34;12.23;;;8.38;;
72813;SDS011;60945;48.516;-2.768;2023-03-08T13:31:20;10.15;;;7.78;;
72813;SDS011;60945;48.516;-2.768;2023-03-08T13:33:52;14.05;;;8.73;;
72813;SDS011;60945;48.516;-2.768;2023-03-08T13:36:23;11.98;;;7.97;;
72813;SDS011;60945;48.516;-2.768;2023-03-08T13:39:13;14.25;;;9.65;;
72813;SDS011;60945;48.516;-2.768;2023-03-08T13:41:43;13.40;;;8.73;;
72813;SDS011;60945;48.516;-2.768;2023-03-08T13:46:38;13.27;;;8.15;;
72813;SDS011;60945;48.516;-2.768;2023-03-08T13:49:16;10.38;;;7.32;;
72813;SDS011;60945;48.516;-2.768;2023-03-08T13:51:47;12.48;;;8.07;;
72813;SDS011;60945;48.516;-2.768;2023-03-08T13:54:20;16.88;;;14.73;;
72813;SDS011;60945;48.516;-2.768;2023-03-08T13:57:01;12.90;;;11.25;;
72813;SDS011;60945;48.516;-2.768;2023-03-08T13:59:29;11.15;;;7.40;;
72813;SDS011;60945;48.516;-2.768;2023-03-08T14:01:56;14.13;;;7.60;;
72813;SDS011;60945;48.516;-2.768;2023-03-08T14:04:24;13.20;;;7.07;;
72813;SDS011;60945;48.516;-2.768;2023-03-08T14:06:58;10.35;;;7.45;;
72813;SDS011;60945;48.516;-2.768;2023-03-08T14:09:25;13.65;;;6.85;;
72813;SDS011;60945;48.516;-2.768;2023-03-08T14:12:04;11.05;;;6.93;;
72813;SDS011;60945;48.516;-2.768;2023-03-08T14:14:31;13.23;;;7.30;;
72813;SDS011;60945;48.516;-2.768;2023-03-08T14:16:59;11.95;;;6.50;;
72813;SDS011;60945;48.516;-2.768;2023-03-08T14:19:29;14.50;;;7.28;;
72813;SDS011;60945;48.516;-2.768;2023-03-08T14:22:11;14.20;;;7.13;;
72813;SDS011;60945;48.516;-2.768;2023-03-08T14:24:39;17.15;;;15.45;;
72813;SDS011;60945;48.516;-2.768;2023-03-08T14:29:39;11.73;;;6.72;;
72813;SDS011;60945;48.516;-2.768;2023-03-08T14:34:38;12.85;;;6.40;;
72813;SDS011;60945;48.516;-2.768;2023-03-08T14:37:25;12.13;;;6.00;;
72813;SDS011;60945;48.516;-2.768;2023-03-08T14:39:54;15.02;;;10.73;;
72813;SDS011;60945;48.516;-2.768;2023-03-08T14:45:15;10.85;;;6.70;;
72813;SDS011;60945;48.516;-2.768;2023-03-08T14:47:47;10.90;;;6.35;;
72813;SDS011;60945;48.516;-2.768;2023-03-08T14:50:22;12.18;;;6.25;;
72813;SDS011;60945;48.516;-2.768;2023-03-08T14:52:52;11.48;;;6.53;;
72813;SDS011;60945;48.516;-2.768;2023-03-08T14:57:51;16.80;;;9.00;;
72813;SDS011;60945;48.516;-2.768;2023-03-08T15:00:19;17.38;;;7.57;;
72813;SDS011;60945;48.516;-2.768;2023-03-08T15:02:46;13.13;;;7.10;;
72813;SDS011;60945;48.516;-2.768;2023-03-08T15:05:16;12.73;;;7.28;;
72813;SDS011;60945;48.516;-2.768;2023-03-08T15:07:44;18.93;;;7.30;;
72813;SDS011;60945;48.516;-2.768;2023-03-08T15:10:15;14.48;;;6.97;;
72813;SDS011;60945;48.516;-2.768;2023-03-08T15:15:19;17.10;;;7.95;;
72813;SDS011;60945;48.516;-2.768;2023-03-08T15:17:45;14.77;;;10.40;;
72813;SDS011;60945;48.516;-2.768;2023-03-08T15:20:11;14.77;;;6.53;;
72813;SDS011;60945;48.516;-2.768;2023-03-08T15:22:42;16.02;;;6.57;;
72813;SDS011;60945;48.516;-2.768;2023-03-08T15:25:22;13.10;;;6.82;;
72813;SDS011;60945;48.516;-2.768;2023-03-08T15:27:52;15.27;;;6.75;;
72813;SDS011;60945;48.516;-2.768;2023-03-08T15:30:20;18.10;;;14.13;;
72813;SDS011;60945;48.516;-2.768;2023-03-08T15:32:47;16.23;;;7.20;;
72813;SDS011;60945;48.516;-2.768;2023-03-08T15:35:13;15.98;;;8.75;;
72813;SDS011;60945;48.516;-2.768;2023-03-08T15:37:40;18.75;;;7.00;;
72813;SDS011;60945;48.516;-2.768;2023-03-08T15:40:10;17.08;;;9.40;;
72813;SDS011;60945;48.516;-2.768;2023-03-08T15:42:38;10.13;;;6.88;;
72813;SDS011;60945;48.516;-2.768;2023-03-08T15:45:03;17.60;;;8.55;;
72813;SDS011;60945;48.516;-2.768;2023-03-08T15:47:29;13.13;;;6.60;;
72813;SDS011;60945;48.516;-2.768;2023-03-08T15:49:55;13.30;;;6.32;;
72813;SDS011;60945;48.516;-2.768;2023-03-08T15:52:21;12.32;;;6.40;;
72813;SDS011;60945;48.516;-2.768;2023-03-08T15:54:47;16.27;;;6.60;;
72813;SDS011;60945;48.516;-2.768;2023-03-08T15:57:16;11.13;;;6.65;;
72813;SDS011;60945;48.516;-2.768;2023-03-08T15:59:42;18.02;;;16.33;;
72813;SDS011;60945;48.516;-2.768;2023-03-08T16:02:10;16.55;;;8.10;;
72813;SDS011;60945;48.516;-2.768;2023-03-08T16:04:39;14.27;;;6.72;;
72813;SDS011;60945;48.516;-2.768;2023-03-08T16:07:13;14.82;;;6.00;;
72813;SDS011;60945;48.516;-2.768;2023-03-08T16:09:42;13.57;;;6.85;;
72813;SDS011;60945;48.516;-2.768;2023-03-08T16:12:08;12.82;;;11.60;;
72813;SDS011;60945;48.516;-2.768;2023-03-08T16:14:35;15.75;;;11.82;;
72813;SDS011;60945;48.516;-2.768;2023-03-08T16:17:01;14.80;;;7.40;;